Perth, United Kingdom
Current Conditions -  °F | °C
As of 8:20 PM on Wednesday 28 Jan 2015 (Local Time) from EGPN Reporting Station
Few Clouds Few Clouds  
Wind Chill: 27°   Ceiling: Unl
Heat Index: 36°   Visibility: 6mi
Dew Point: 32°   Wind: 14mph
Humidity: 87%   Direction: 260°W
Pressure: 29.06"   Gusts: NA
Location:  56.42°N, 3.46°W
Report Text: EGPN 282020Z 26012KT 9999 FEW030 02/00 Q0984
Loading
Personal Weather Stations






























Interactive Weather Map New forecast layout! Learn more

10-Day Weather Forecast

Advertisements
Track Severe Weather on mobile